Time;durP1;ratioP1;P1;durP2;ratioP2;P2;SDS_P1;SDS_P2;PMS_P1;PMS_P2;Temp;Humidity;BMP_temperature;BMP_pressure;BME280_temperature;BME280_humidity;BME280_pressure;Samples;Min_cycle;Max_cycle;Signal;HPM_P1;HPM_P2
2023/11/17 00:01:13;;;;;;;2.10;1.90;;;;;;;7.93;98.64;99499.58;108270;1253;69704;-59
2023/11/17 00:03:41;;;;;;;2.50;2.30;;;;;;;7.82;99.94;99498.73;108345;1253;73382;-59
2023/11/17 00:06:09;;;;;;;2.30;2.10;;;;;;;7.94;99.80;99494.10;108342;1252;60593;-59
2023/11/17 00:08:37;;;;;;;;;;;;;;;7.80;99.68;99495.98;108363;1252;60111;-59
2023/11/17 00:11:05;;;;;;;2.10;2.00;;;;;;;7.71;100.00;99503.59;108407;1253;73564;-59
2023/11/17 00:13:32;;;;;;;2.30;2.10;;;;;;;7.84;99.40;99505.27;108380;1253;69185;-59
2023/11/17 00:16:01;;;;;;;2.10;1.90;;;;;;;7.80;98.66;99497.19;108360;1253;72569;-58
2023/11/17 00:18:29;;;;;;;2.20;2.00;;;;;;;7.88;98.62;99502.87;108351;1253;59355;-58
2023/11/17 00:20:57;;;;;;;2.20;2.00;;;;;;;7.91;98.89;99505.03;108396;1253;60132;-59
2023/11/17 00:23:27;;;;;;;2.40;2.20;;;;;;;7.96;98.03;99510.63;108331;1253;74356;-58
2023/11/17 00:25:55;;;;;;;2.20;2.00;;;;;;;7.97;97.58;99508.50;108396;1252;70226;-59
2023/11/17 00:28:23;;;;;;;1.90;1.80;;;;;;;7.97;97.38;99516.54;108425;1252;72354;-59
2023/11/17 00:30:50;;;;;;;2.10;2.00;;;;;;;7.96;97.47;99512.34;108301;1253;60706;-59
2023/11/17 00:33:19;;;;;;;3.80;2.30;;;;;;;8.00;96.99;99515.21;108189;1252;60352;-58
2023/11/17 00:35:47;;;;;;;2.70;2.50;;;;;;;8.00;96.81;99519.92;108221;1252;74487;-59
2023/11/17 00:38:16;;;;;;;2.00;1.90;;;;;;;8.01;96.37;99521.30;108162;1252;71220;-59
2023/11/17 00:40:44;;;;;;;2.30;2.10;;;;;;;8.03;95.86;99525.75;108287;1253;72384;-59
2023/11/17 00:43:12;;;;;;;;;;;;;;;8.04;96.08;99525.52;108313;1253;59672;-59
2023/11/17 00:45:40;;;;;;;2.90;2.60;;;;;;;8.03;95.22;99527.32;108219;1252;59498;-58
2023/11/17 00:48:09;;;;;;;1.90;1.80;;;;;;;8.03;94.84;99529.75;108376;1253;74059;-58
2023/11/17 00:50:37;;;;;;;2.70;2.50;;;;;;;8.04;94.89;99534.64;108345;1253;69371;-59
2023/11/17 00:53:05;;;;;;;2.20;2.10;;;;;;;8.06;95.16;99540.14;108152;1254;72538;-58
2023/11/17 00:55:33;;;;;;;;;;;;;;;8.09;94.85;99548.60;108377;1252;60582;-58
2023/11/17 00:58:03;;;;;;;1.90;1.80;;;;;;;8.10;94.08;99550.14;108312;1252;60368;-58
2023/11/17 01:00:30;;;;;;;1.90;1.70;;;;;;;8.13;94.21;99553.67;108400;1252;74468;-58
2023/11/17 01:02:58;;;;;;;2.10;2.00;;;;;;;8.18;93.85;99552.65;108208;1253;68197;-59
2023/11/17 01:05:26;;;;;;;4.20;1.90;;;;;;;8.19;92.52;99550.16;108156;1254;71195;-59
2023/11/17 01:07:56;;;;;;;2.10;1.90;;;;;;;8.17;92.85;99557.57;108197;1252;60647;-59
2023/11/17 01:10:24;;;;;;;1.90;1.80;;;;;;;8.16;93.73;99557.95;108355;1252;59756;-59
2023/11/17 01:12:52;;;;;;;2.00;1.90;;;;;;;8.19;93.29;99557.48;108373;1252;73612;-59
2023/11/17 01:15:22;;;;;;;1.90;1.80;;;;;;;8.13;92.42;99551.06;108281;1253;70451;-58
2023/11/17 01:17:51;;;;;;;;;;;;;;;8.09;92.93;99550.67;108317;1253;72221;-59
2023/11/17 01:20:19;;;;;;;1.90;1.80;;;;;;;8.06;91.95;99546.43;108373;1252;61051;-59
2023/11/17 01:22:46;;;;;;;2.10;1.80;;;;;;;8.05;92.42;99545.26;108293;1252;60203;-58
2023/11/17 01:25:14;;;;;;;4.10;1.80;;;;;;;8.01;92.69;99544.34;108134;1252;74086;-59
2023/11/17 01:27:42;;;;;;;1.90;1.80;;;;;;;7.94;92.70;99543.50;108438;1253;69055;-59
2023/11/17 01:30:10;;;;;;;2.00;1.80;;;;;;;7.79;94.07;99539.30;108374;1253;72989;-58
2023/11/17 01:32:38;;;;;;;2.70;2.00;;;;;;;7.82;94.32;99533.79;108208;1254;60121;-59
2023/11/17 01:35:07;;;;;;;1.90;1.80;;;;;;;7.76;94.45;99530.12;108169;1253;59726;-58
2023/11/17 01:37:34;;;;;;;2.10;1.90;;;;;;;7.90;93.56;99524.98;108174;1252;72709;-59
2023/11/17 01:40:05;;;;;;;2.70;2.50;;;;;;;7.87;92.96;99524.20;108317;1252;69099;-59
2023/11/17 01:42:33;;;;;;;1.90;1.60;;;;;;;7.87;93.16;99525.42;108394;1252;71325;-59
2023/11/17 01:45:01;;;;;;;;;;;;;;;7.86;92.23;99521.78;108338;1253;60600;-59
2023/11/17 01:47:28;;;;;;;2.50;2.00;;;;;;;7.78;91.57;99517.83;108087;1253;59509;-58
2023/11/17 01:49:56;;;;;;;1.70;1.60;;;;;;;7.79;92.30;99513.98;108126;1252;73673;-59
2023/11/17 01:52:24;;;;;;;1.80;1.70;;;;;;;7.79;92.38;99510.85;108311;1252;69377;-59
2023/11/17 01:54:51;;;;;;;2.60;2.40;;;;;;;7.82;91.91;99502.73;108267;1253;72427;-59
2023/11/17 01:57:21;;;;;;;3.00;2.40;;;;;;;7.82;92.17;99499.58;108085;1253;60652;-59
2023/11/17 01:59:49;;;;;;;2.60;2.00;;;;;;;7.84;90.84;99503.90;108162;1252;59671;-59
2023/11/17 02:02:17;;;;;;;2.60;2.40;;;;;;;7.71;91.17;99504.48;107864;1252;73629;-59
2023/11/17 02:04:45;;;;;;;2.30;2.10;;;;;;;7.57;91.92;99510.54;108303;1252;69296;-59
2023/11/17 02:07:19;;;;;;;;;;;;;;;7.55;92.62;99511.45;108164;1255;72478;-59
2023/11/17 02:10:28;;;;;;;3.20;1.90;;;;;;;7.74;91.32;99509.64;108116;1252;60811;-58
2023/11/17 02:13:04;;;;;;;1.90;1.80;;;;;;;7.77;90.19;99505.67;108099;1252;60137;-59
2023/11/17 02:15:34;;;;;;;2.30;2.10;;;;;;;7.78;90.12;99508.27;107947;1252;72778;-58
2023/11/17 02:18:04;;;;;;;1.90;1.80;;;;;;;7.76;90.52;99510.06;108376;1253;68332;-59
2023/11/17 02:20:34;;;;;;;2.50;2.20;;;;;;;7.78;90.20;99512.27;108146;1254;71589;-59
2023/11/17 02:23:10;;;;;;;2.40;2.20;;;;;;;7.79;89.58;99512.94;108072;1254;61273;-59
2023/11/17 02:25:47;;;;;;;4.10;2.30;;;;;;;7.75;89.20;99516.02;107950;1252;58866;-59
2023/11/17 02:28:34;;;;;;;2.90;1.80;;;;;;;7.67;89.03;99514.91;108513;1252;73112;-58
2023/11/17 02:31:15;;;;;;;1.90;1.80;;;;;;;7.61;88.90;99512.66;107944;1252;69110;-59
2023/11/17 02:33:45;;;;;;;2.10;1.90;;;;;;;7.55;88.77;99513.56;108255;1252;73202;-60
2023/11/17 02:36:19;;;;;;;2.20;1.90;;;;;;;7.57;89.62;99509.48;107757;1254;61192;-60
2023/11/17 02:39:05;;;;;;;2.20;1.70;;;;;;;7.60;89.07;99509.73;108027;1253;59713;-58
2023/11/17 02:41:37;;;;;;;2.20;2.00;;;;;;;7.56;89.02;99504.48;108247;1253;73517;-58
2023/11/17 02:44:11;;;;;;;2.00;1.80;;;;;;;7.56;89.34;99505.50;108246;1253;70088;-58
2023/11/17 02:46:44;;;;;;;2.00;1.90;;;;;;;7.59;89.00;99501.39;108341;1252;72402;-58
2023/11/17 02:49:22;;;;;;;2.10;1.90;;;;;;;7.57;88.69;99499.90;108269;1254;60730;-58
2023/11/17 02:51:51;;;;;;;2.50;2.30;;;;;;;7.54;89.12;99497.89;108245;1253;59688;-58
2023/11/17 02:54:23;;;;;;;2.10;2.00;;;;;;;7.52;89.06;99497.61;108347;1253;73678;-58
2023/11/17 02:56:50;;;;;;;2.20;2.10;;;;;;;7.50;89.06;99496.80;108035;1253;70080;-58
2023/11/17 02:59:19;;;;;;;;;;;;;;;7.48;89.44;99498.08;107795;1254;72526;-58
2023/11/17 03:01:46;;;;;;;2.40;2.20;;;;;;;7.45;88.47;99498.55;108365;1253;59710;-58
2023/11/17 03:04:15;;;;;;;2.30;2.20;;;;;;;7.43;88.98;99503.66;108332;1253;59814;-59
2023/11/17 03:06:46;;;;;;;2.20;2.00;;;;;;;7.44;89.43;99504.16;108270;1254;72717;-58
2023/11/17 03:09:16;;;;;;;2.20;2.10;;;;;;;7.48;88.88;99505.41;108247;1254;70163;-58
2023/11/17 03:11:47;;;;;;;2.50;2.30;;;;;;;7.47;88.49;99506.15;108200;1254;72515;-58
2023/11/17 03:14:15;;;;;;;2.70;2.50;;;;;;;7.33;88.91;99505.17;108242;1254;60697;-58
2023/11/17 03:16:48;;;;;;;2.60;2.30;;;;;;;7.32;89.61;99510.10;108210;1253;60063;-62
2023/11/17 03:19:17;;;;;;;2.60;2.40;;;;;;;7.35;89.70;99510.18;108365;1254;74482;-58
2023/11/17 03:21:44;;;;;;;;;;;;;;;7.37;89.73;99507.15;108370;1253;69129;-58
2023/11/17 03:24:14;;;;;;;2.70;2.50;;;;;;;7.40;88.99;99511.77;108309;1253;72363;-58
2023/11/17 03:26:45;;;;;;;4.90;2.40;;;;;;;7.38;89.17;99517.24;108252;1253;60641;-58
2023/11/17 03:29:14;;;;;;;2.50;2.30;;;;;;;7.21;89.86;99526.84;108358;1253;59694;-58
2023/11/17 03:31:48;;;;;;;2.50;2.30;;;;;;;7.25;89.80;99523.75;108266;1254;74022;-58
2023/11/17 03:34:23;;;;;;;2.50;2.30;;;;;;;7.39;89.19;99528.02;108286;1253;68293;-58
2023/11/17 03:36:57;;;;;;;2.60;2.40;;;;;;;7.43;88.93;99523.70;108264;1252;72629;-59
2023/11/17 03:39:30;;;;;;;2.60;2.20;;;;;;;7.46;88.57;99527.64;108224;1253;60929;-59
2023/11/17 03:41:59;;;;;;;2.70;2.50;;;;;;;7.45;88.64;99520.68;108004;1253;59756;-61
2023/11/17 03:44:27;;;;;;;2.30;2.10;;;;;;;7.48;88.63;99523.20;108097;1253;73641;-58
2023/11/17 03:46:56;;;;;;;2.70;2.10;;;;;;;7.50;88.42;99523.32;108285;1253;70059;-59
2023/11/17 03:49:25;;;;;;;2.10;1.90;;;;;;;7.50;88.20;99520.88;108197;1254;72474;-59
2023/11/17 03:51:53;;;;;;;3.00;2.70;;;;;;;7.43;88.01;99517.77;108309;1253;61711;-58
2023/11/17 03:54:22;;;;;;;2.80;2.50;;;;;;;7.36;88.39;99514.86;108147;1253;59870;-58
2023/11/17 03:56:52;;;;;;;2.40;2.20;;;;;;;7.37;88.62;99513.77;108234;1256;72775;-58
2023/11/17 03:59:22;;;;;;;2.50;2.30;;;;;;;7.38;88.61;99517.08;107882;1253;68245;-58
2023/11/17 04:01:50;;;;;;;2.60;2.40;;;;;;;7.37;89.05;99518.14;108222;1254;72353;-58
2023/11/17 04:04:18;;;;;;;;;;;;;;;7.25;89.93;99522.54;108229;1254;60601;-58
2023/11/17 04:06:49;;;;;;;2.60;2.40;;;;;;;7.19;90.01;99529.15;108180;1253;59459;-58
2023/11/17 04:09:20;;;;;;;2.60;2.40;;;;;;;7.16;89.96;99528.89;108275;1254;73616;-58
2023/11/17 04:11:53;;;;;;;2.50;2.30;;;;;;;7.16;90.11;99521.57;108247;1253;68166;-58
2023/11/17 04:14:21;;;;;;;2.80;2.50;;;;;;;7.06;89.74;99514.05;108362;1253;72265;-58
2023/11/17 04:16:49;;;;;;;2.70;2.50;;;;;;;6.96;90.79;99512.42;108219;1253;60834;-58
2023/11/17 04:19:17;;;;;;;3.00;2.80;;;;;;;6.96;91.43;99510.00;108142;1253;58914;-58
2023/11/17 04:21:46;;;;;;;2.40;2.30;;;;;;;6.98;91.47;99508.88;107978;1253;74087;-59
2023/11/17 04:24:13;;;;;;;2.90;2.70;;;;;;;7.00;91.65;99513.54;108285;1253;69140;-58
2023/11/17 04:26:41;;;;;;;3.40;2.60;;;;;;;7.00;91.87;99516.48;108191;1254;73343;-59
2023/11/17 04:29:09;;;;;;;4.10;3.00;;;;;;;7.02;91.71;99512.06;108242;1254;61587;-58
2023/11/17 04:31:36;;;;;;;3.00;2.80;;;;;;;7.10;91.74;99511.99;108192;1252;59704;-59
2023/11/17 04:34:05;;;;;;;3.10;2.80;;;;;;;7.14;90.93;99516.42;108200;1253;73746;-61
2023/11/17 04:36:33;;;;;;;3.30;3.00;;;;;;;7.10;91.35;99515.52;108338;1253;69213;-60
2023/11/17 04:39:01;;;;;;;;;;;;;;;7.10;91.22;99509.40;108094;1254;72744;-60
2023/11/17 04:41:31;;;;;;;2.20;2.10;;;;;;;7.09;91.14;99514.66;108091;1254;60649;-60
2023/11/17 04:44:00;;;;;;;3.80;2.70;;;;;;;7.08;91.22;99513.82;108138;1253;60155;-60
2023/11/17 04:46:28;;;;;;;2.40;2.20;;;;;;;7.09;91.20;99514.48;108216;1253;74347;-60
2023/11/17 04:48:56;;;;;;;3.40;2.10;;;;;;;7.06;90.93;99510.92;108279;1253;69064;-60
2023/11/17 04:51:23;;;;;;;2.60;2.40;;;;;;;6.98;91.25;99508.02;108225;1254;72538;-58
2023/11/17 04:53:51;;;;;;;2.60;2.40;;;;;;;6.96;91.79;99503.36;108209;1254;61196;-59
2023/11/17 04:56:19;;;;;;;2.60;2.40;;;;;;;6.97;92.09;99507.69;108479;1253;60336;-61
2023/11/17 04:58:46;;;;;;;3.10;2.60;;;;;;;7.00;92.24;99509.33;108401;1253;73693;-59
2023/11/17 05:01:14;;;;;;;;;;;;;;;6.93;92.44;99509.55;108360;1253;70095;-60
2023/11/17 05:03:42;;;;;;;2.80;2.50;;;;;;;6.91;93.08;99511.88;107995;1254;72386;-64
2023/11/17 05:06:10;;;;;;;3.00;2.80;;;;;;;6.95;93.04;99512.80;108232;1254;60851;-64
2023/11/17 05:08:38;;;;;;;4.00;2.80;;;;;;;6.94;93.03;99515.64;108245;1253;60362;-63
2023/11/17 05:11:05;;;;;;;3.20;2.90;;;;;;;6.95;93.12;99517.86;108240;1252;73498;-64
2023/11/17 05:13:34;;;;;;;3.40;3.10;;;;;;;6.93;93.35;99522.80;108206;1253;70237;-60
2023/11/17 05:16:04;;;;;;;3.20;3.00;;;;;;;6.92;93.30;99525.45;108214;1254;72593;-59
2023/11/17 05:18:32;;;;;;;3.30;3.00;;;;;;;6.93;93.30;99525.07;108346;1253;60594;-60
2023/11/17 05:21:00;;;;;;;2.70;2.50;;;;;;;6.91;93.55;99527.73;108231;1253;59696;-62
2023/11/17 05:23:28;;;;;;;3.50;3.20;;;;;;;6.96;93.90;99530.02;108194;1253;73609;-65
2023/11/17 05:25:56;;;;;;;4.60;3.40;;;;;;;6.98;93.72;99531.36;108237;1254;68571;-60
2023/11/17 05:28:24;;;;;;;3.40;3.10;;;;;;;6.98;93.66;99536.95;108253;1254;71987;-60
2023/11/17 05:30:55;;;;;;;3.80;3.50;;;;;;;6.98;94.06;99546.55;108368;1253;60696;-60
2023/11/17 05:33:23;;;;;;;4.10;3.80;;;;;;;7.13;93.64;99555.14;108249;1254;60089;-60
2023/11/17 05:35:51;;;;;;;3.90;3.50;;;;;;;7.10;93.54;99554.54;108204;1254;73606;-60
2023/11/17 05:38:19;;;;;;;3.90;3.60;;;;;;;7.11;93.37;99556.95;108385;1252;69757;-61
2023/11/17 05:40:47;;;;;;;4.20;3.80;;;;;;;7.11;93.93;99557.80;108475;1252;72362;-60
2023/11/17 05:43:15;;;;;;;4.00;3.70;;;;;;;7.12;93.59;99563.52;108339;1252;61098;-61
2023/11/17 05:48:30;;;;;;;4.10;3.70;;;;;;;7.17;93.85;99571.75;101362;1292;601059;-59
2023/11/17 05:50:58;;;;;;;4.00;3.60;;;;;;;7.14;93.75;99571.48;104552;1265;61014;-60
2023/11/17 05:55:06;;;;;;;4.00;3.60;;;;;;;6.59;98.13;99572.49;101763;1304;601891;-59
2023/11/17 05:57:34;;;;;;;4.10;3.80;;;;;;;6.98;95.35;99568.81;104217;1271;60551;-61
2023/11/17 06:00:08;;;;;;;4.20;3.80;;;;;;;7.01;95.07;99573.62;103735;1280;59820;-60
2023/11/17 06:02:40;;;;;;;4.50;4.10;;;;;;;7.13;93.83;99578.68;103835;1272;71980;-59
2023/11/17 06:05:08;;;;;;;5.80;4.10;;;;;;;7.17;93.14;99581.52;104180;1270;69183;-60
2023/11/17 06:07:36;;;;;;;4.10;3.60;;;;;;;7.04;94.19;99585.92;103687;1279;349663;-60
2023/11/17 06:10:04;;;;;;;5.90;4.50;;;;;;;7.20;93.52;99588.25;104060;1264;61054;-60
2023/11/17 06:12:33;;;;;;;5.50;4.00;;;;;;;7.13;94.42;99587.21;103740;1264;60116;-59
2023/11/17 06:15:01;;;;;;;7.30;4.20;;;;;;;7.34;92.66;99589.21;103916;1264;72092;-61
2023/11/17 06:17:29;;;;;;;;;;;;;;;7.34;91.96;99595.83;104039;1271;67991;-60
2023/11/17 06:20:00;;;;;;;4.50;4.10;;;;;;;7.32;92.06;99597.11;104486;1267;72456;-61
2023/11/17 06:22:28;;;;;;;5.20;4.70;;;;;;;7.30;92.24;99597.36;104200;1263;60583;-58
2023/11/17 06:24:56;;;;;;;;;;;;;;;7.18;92.72;99594.58;104033;1279;60583;-59
2023/11/17 06:27:24;;;;;;;5.20;4.70;;;;;;;7.01;95.10;99600.98;104021;1264;73283;-58
2023/11/17 06:29:52;;;;;;;4.80;4.30;;;;;;;7.01;95.47;99600.81;104924;1255;69124;-57
2023/11/17 06:32:22;;;;;;;5.00;4.60;;;;;;;7.03;96.05;99601.27;104682;1257;72428;-58
2023/11/17 06:34:50;;;;;;;4.70;4.30;;;;;;;7.04;95.91;99601.77;104464;1263;59754;-58
2023/11/17 06:37:18;;;;;;;7.70;4.70;;;;;;;7.04;95.94;99600.22;104779;1254;59935;-57
2023/11/17 06:39:46;;;;;;;4.40;4.10;;;;;;;6.98;97.20;99597.23;108434;1252;72768;-58
2023/11/17 06:42:14;;;;;;;4.10;3.80;;;;;;;7.11;96.06;99597.90;108318;1253;69979;-58
2023/11/17 06:44:41;;;;;;;4.40;4.10;;;;;;;7.17;95.91;99596.88;108261;1253;72346;-58
2023/11/17 06:47:09;;;;;;;4.80;4.40;;;;;;;7.24;95.32;99593.35;108451;1253;60718;-59
2023/11/17 06:49:37;;;;;;;4.10;3.80;;;;;;;7.16;96.21;99595.48;108430;1254;59266;-59
2023/11/17 06:52:08;;;;;;;3.70;3.40;;;;;;;7.22;96.99;99596.38;108531;1254;72947;-59
2023/11/17 06:54:36;;;;;;;4.30;3.80;;;;;;;7.43;96.01;99596.61;108419;1252;68195;-59
2023/11/17 06:57:03;;;;;;;4.80;4.40;;;;;;;7.49;94.67;99594.16;108496;1253;72020;-59
2023/11/17 06:59:31;;;;;;;;;;;;;;;7.53;94.70;99594.73;108431;1252;60881;-58
2023/11/17 07:02:00;;;;;;;5.90;5.10;;;;;;;7.37;96.87;99595.89;108308;1252;59722;-59
2023/11/17 07:04:30;;;;;;;7.20;5.50;;;;;;;7.37;97.44;99597.84;108467;1253;71798;-59
2023/11/17 07:06:59;;;;;;;9.10;6.30;;;;;;;7.36;97.85;99599.08;108440;1253;69925;-58
2023/11/17 07:09:30;;;;;;;6.00;5.40;;;;;;;7.35;97.59;99602.94;108445;1253;72368;-58
2023/11/17 07:12:02;;;;;;;5.10;4.40;;;;;;;7.42;97.68;99603.77;108371;1254;60603;-58
2023/11/17 07:14:31;;;;;;;6.50;4.90;;;;;;;7.47;97.42;99600.16;108425;1254;58706;-58
2023/11/17 07:16:59;;;;;;;5.20;4.40;;;;;;;7.48;97.58;99600.11;108134;1252;72843;-58
2023/11/17 07:19:26;;;;;;;6.10;4.90;;;;;;;7.68;96.17;99595.82;108424;1254;69289;-59
2023/11/17 07:21:55;;;;;;;;;;;;;;;7.63;95.68;99594.92;108333;1253;72400;-59
2023/11/17 07:24:23;;;;;;;5.70;5.00;;;;;;;7.52;97.29;99596.52;108452;1252;60603;-58
2023/11/17 07:26:51;;;;;;;;;;;;;;;7.53;97.77;99599.61;108386;1252;60124;-56
2023/11/17 07:29:18;;;;;;;5.00;4.50;;;;;;;7.66;96.73;99597.63;108367;1253;72782;-57
2023/11/17 07:31:47;;;;;;;4.90;4.50;;;;;;;7.56;97.47;99601.98;108396;1254;68882;-57
2023/11/17 07:34:15;;;;;;;4.50;4.10;;;;;;;7.58;96.97;99609.21;108452;1254;72873;-57
2023/11/17 07:36:45;;;;;;;5.50;5.00;;;;;;;7.59;97.16;99615.45;108481;1253;61517;-57
2023/11/17 07:39:13;;;;;;;5.80;5.30;;;;;;;7.63;97.32;99620.95;108368;1252;59663;-58
2023/11/17 07:41:41;;;;;;;;;;;;;;;7.67;97.00;99625.17;108407;1253;72800;-57
2023/11/17 07:44:11;;;;;;;5.20;4.60;;;;;;;7.70;97.30;99633.45;108298;1252;70089;-57
2023/11/17 07:46:39;;;;;;;5.30;4.80;;;;;;;7.74;97.52;99638.20;108407;1252;72412;-57
2023/11/17 07:49:10;;;;;;;;;;;;;;;7.78;97.08;99642.09;108173;1253;60557;-57
2023/11/17 07:51:38;;;;;;;4.80;4.40;;;;;;;7.84;96.41;99646.65;108357;1253;59525;-58
2023/11/17 07:54:08;;;;;;;5.40;4.40;;;;;;;7.86;95.95;99645.52;108292;1253;72874;-58
2023/11/17 07:56:35;;;;;;;5.80;5.30;;;;;;;7.88;96.20;99652.27;108296;1253;69417;-58
2023/11/17 07:59:04;;;;;;;6.30;5.20;;;;;;;7.91;95.95;99654.06;108393;1254;72787;-57
2023/11/17 08:01:32;;;;;;;6.70;6.10;;;;;;;7.94;95.73;99660.44;108377;1253;60858;-58
2023/11/17 08:04:01;;;;;;;5.30;4.90;;;;;;;7.99;94.95;99663.25;108318;1254;58895;-58
2023/11/17 08:06:29;;;;;;;5.10;4.70;;;;;;;7.96;94.59;99665.81;108350;1252;72918;-57
2023/11/17 08:08:57;;;;;;;6.20;5.10;;;;;;;7.94;95.03;99670.55;108350;1253;69123;-58
2023/11/17 08:11:25;;;;;;;5.90;5.40;;;;;;;7.93;94.87;99668.16;108486;1253;72716;-58
2023/11/17 08:13:53;;;;;;;5.50;5.00;;;;;;;7.95;95.29;99673.34;108500;1253;60706;-57
2023/11/17 08:16:21;;;;;;;5.10;4.70;;;;;;;7.99;95.62;99675.13;108261;1253;60135;-57
2023/11/17 08:18:50;;;;;;;5.80;5.30;;;;;;;8.01;95.15;99678.56;108404;1253;73705;-57
2023/11/17 08:21:18;;;;;;;5.40;4.90;;;;;;;8.00;95.35;99677.71;108395;1252;69401;-57
2023/11/17 08:23:46;;;;;;;5.70;5.20;;;;;;;8.02;95.65;99678.52;108335;1252;72952;-58
2023/11/17 08:26:15;;;;;;;7.50;5.50;;;;;;;8.06;95.44;99678.91;108385;1253;60650;-58
2023/11/17 08:28:43;;;;;;;5.20;4.70;;;;;;;8.05;95.10;99681.92;108436;1252;59888;-57
2023/11/17 08:31:17;;;;;;;6.30;5.80;;;;;;;8.05;94.91;99681.91;108396;1253;72249;-57
2023/11/17 08:33:46;;;;;;;6.10;5.50;;;;;;;8.06;94.68;99682.76;108239;1254;69044;-57
2023/11/17 08:36:17;;;;;;;;;;;;;;;8.06;94.59;99683.99;108310;1254;72777;-57
2023/11/17 08:38:45;;;;;;;5.50;5.00;;;;;;;8.04;94.33;99685.97;108305;1253;61100;-58
2023/11/17 08:41:16;;;;;;;;;;;;;;;8.08;94.85;99684.28;108396;1252;59879;-59
2023/11/17 08:43:45;;;;;;;8.50;5.90;;;;;;;8.06;95.02;99682.08;108382;1253;72227;-58
2023/11/17 08:46:13;;;;;;;7.00;6.20;;;;;;;8.06;94.87;99684.52;108387;1253;70085;-57
2023/11/17 08:48:41;;;;;;;5.70;5.20;;;;;;;8.17;94.51;99681.54;108333;1253;72934;-58
2023/11/17 08:51:09;;;;;;;5.80;5.30;;;;;;;8.30;93.69;99678.16;108394;1252;60583;-58
2023/11/17 08:53:37;;;;;;;5.50;4.90;;;;;;;8.43;92.89;99675.98;108335;1253;59676;-60
2023/11/17 08:56:06;;;;;;;;;;;;;;;8.42;92.81;99671.81;108230;1252;72996;-58
2023/11/17 08:58:34;;;;;;;6.90;6.00;;;;;;;8.27;93.28;99666.55;108447;1252;69263;-58
2023/11/17 09:01:02;;;;;;;7.10;6.30;;;;;;;8.31;92.59;99666.44;108435;1252;71445;-58
2023/11/17 09:03:32;;;;;;;6.90;6.30;;;;;;;8.29;92.84;99665.61;108376;1253;60590;-58
2023/11/17 09:06:00;;;;;;;7.20;6.50;;;;;;;8.33;93.51;99668.43;108364;1253;59676;-58
2023/11/17 09:08:27;;;;;;;6.60;5.90;;;;;;;8.46;92.58;99670.64;108373;1253;72736;-57
2023/11/17 09:10:55;;;;;;;10.20;6.80;;;;;;;8.53;91.70;99666.41;108371;1253;69290;-58
2023/11/17 09:13:24;;;;;;;8.10;7.00;;;;;;;8.59;91.35;99668.30;108454;1252;72706;-58
2023/11/17 09:15:53;;;;;;;7.80;7.00;;;;;;;8.64;90.85;99664.11;108367;1253;60320;-58
2023/11/17 09:18:21;;;;;;;8.10;7.10;;;;;;;8.47;91.11;99666.94;108380;1253;58954;-58
2023/11/17 09:20:49;;;;;;;9.60;8.40;;;;;;;8.40;91.85;99660.71;108446;1253;72924;-58
2023/11/17 09:23:17;;;;;;;;;;;;;;;8.33;91.91;99656.76;108439;1253;69198;-59
2023/11/17 09:25:45;;;;;;;8.50;7.20;;;;;;;8.30;92.58;99653.67;108352;1253;72314;-58
2023/11/17 09:28:15;;;;;;;7.40;6.80;;;;;;;8.34;93.13;99653.38;108399;1252;61673;-58
2023/11/17 09:30:43;;;;;;;8.40;7.40;;;;;;;8.45;92.03;99653.39;108496;1253;60856;-58
2023/11/17 09:33:15;;;;;;;9.20;7.40;;;;;;;8.47;91.78;99655.07;108376;1253;73640;-58
2023/11/17 09:35:43;;;;;;;9.00;8.10;;;;;;;8.30;92.67;99655.98;108372;1252;69454;-58
2023/11/17 09:38:11;;;;;;;8.40;7.60;;;;;;;8.31;93.29;99657.52;108357;1253;72186;-58
2023/11/17 09:40:52;;;;;;;7.90;7.10;;;;;;;8.46;92.28;99660.88;108383;1253;60542;-60
2023/11/17 09:43:21;;;;;;;7.80;7.00;;;;;;;8.46;91.77;99660.54;108388;1252;59701;-58
2023/11/17 09:45:52;;;;;;;9.40;7.80;;;;;;;8.42;92.13;99660.66;108355;1253;72751;-58
2023/11/17 09:48:21;;;;;;;7.40;6.50;;;;;;;8.24;93.82;99655.13;108427;1252;70443;-58
2023/11/17 09:50:51;;;;;;;8.00;7.20;;;;;;;8.21;95.14;99654.52;108393;1253;72278;-58
2023/11/17 09:53:19;;;;;;;7.40;6.50;;;;;;;8.25;95.25;99648.09;108347;1253;60173;-58
2023/11/17 09:55:48;;;;;;;8.10;7.20;;;;;;;8.24;95.36;99642.73;108245;1253;59181;-58
2023/11/17 09:58:16;;;;;;;7.40;6.70;;;;;;;8.29;96.40;99642.38;108123;1252;71629;-58
2023/11/17 10:00:45;;;;;;;8.10;6.90;;;;;;;8.37;96.31;99641.58;108219;1252;68297;-60
2023/11/17 10:03:13;;;;;;;8.30;6.90;;;;;;;8.45;95.97;99638.55;108252;1252;72367;-61
2023/11/17 10:05:42;;;;;;;7.50;6.90;;;;;;;8.48;95.21;99639.48;108254;1253;60251;-60
2023/11/17 10:08:11;;;;;;;;;;;;;;;8.44;95.50;99628.98;108384;1253;59708;-60
2023/11/17 10:10:42;;;;;;;7.00;6.30;;;;;;;8.48;95.16;99638.97;108438;1253;73653;-60
2023/11/17 10:13:13;;;;;;;7.70;7.00;;;;;;;8.46;95.13;99640.30;108452;1252;69280;-60
2023/11/17 10:15:44;;;;;;;6.80;6.20;;;;;;;8.49;95.46;99643.47;108445;1253;73133;-60
2023/11/17 10:18:25;;;;;;;7.60;6.70;;;;;;;8.54;95.22;99642.08;108342;1253;60837;-62
2023/11/17 10:20:54;;;;;;;7.50;6.80;;;;;;;8.59;95.04;99643.67;108209;1252;59863;-59
2023/11/17 10:23:22;;;;;;;8.20;7.40;;;;;;;8.60;94.50;99647.13;108392;1253;73822;-59
2023/11/17 10:25:54;;;;;;;7.30;6.70;;;;;;;8.61;94.12;99644.67;108428;1253;69114;-59
2023/11/17 10:28:25;;;;;;;7.40;6.70;;;;;;;8.51;93.73;99642.20;108409;1253;73526;-58
2023/11/17 10:30:56;;;;;;;7.60;6.80;;;;;;;8.40;94.03;99640.27;108409;1252;60718;-59
2023/11/17 10:33:30;;;;;;;8.40;6.90;;;;;;;8.42;95.15;99641.09;108335;1253;59671;-58
2023/11/17 10:36:12;;;;;;;7.60;6.80;;;;;;;8.41;95.20;99637.45;108184;1255;73990;-59
2023/11/17 10:38:47;;;;;;;10.00;7.40;;;;;;;8.41;96.42;99634.32;108415;1252;68437;-58
2023/11/17 10:41:24;;;;;;;8.40;7.00;;;;;;;8.48;96.26;99633.37;108390;1253;73358;-59
2023/11/17 10:43:58;;;;;;;7.20;6.50;;;;;;;8.53;96.80;99635.46;108445;1253;61907;-58
2023/11/17 10:46:35;;;;;;;7.30;6.60;;;;;;;8.63;96.06;99636.55;108468;1252;60067;-58
2023/11/17 10:49:07;;;;;;;7.30;6.60;;;;;;;8.64;94.73;99635.83;108297;1253;74088;-58
2023/11/17 10:51:51;;;;;;;8.20;6.70;;;;;;;8.64;94.60;99634.77;108464;1252;69722;-59
2023/11/17 10:54:19;;;;;;;7.20;6.30;;;;;;;8.66;94.29;99632.23;108392;1253;72505;-59
2023/11/17 10:56:47;;;;;;;7.50;6.80;;;;;;;8.67;94.45;99633.77;108332;1253;60817;-58
2023/11/17 10:59:17;;;;;;;8.60;7.00;;;;;;;8.70;94.67;99636.80;108486;1252;59839;-58
2023/11/17 11:01:45;;;;;;;7.80;7.10;;;;;;;8.75;94.47;99636.64;108474;1252;73621;-58
2023/11/17 11:04:17;;;;;;;9.10;8.20;;;;;;;8.80;94.04;99636.30;108391;1253;68105;-59
2023/11/17 11:06:45;;;;;;;9.60;7.00;;;;;;;8.80;94.18;99634.55;108292;1253;72487;-58
2023/11/17 11:09:19;;;;;;;10.00;8.70;;;;;;;8.79;93.21;99634.05;108351;1253;60674;-58
2023/11/17 11:11:48;;;;;;;9.90;8.40;;;;;;;8.73;93.33;99636.02;108376;1252;63331;-58
2023/11/17 11:14:17;;;;;;;10.30;7.60;;;;;;;8.71;94.24;99638.34;108368;1252;73684;-57
2023/11/17 11:16:46;;;;;;;7.90;6.90;;;;;;;8.72;93.79;99636.73;108296;1252;70340;-58
2023/11/17 11:19:15;;;;;;;8.70;7.80;;;;;;;8.74;93.42;99638.25;108195;1254;74756;-59
2023/11/17 11:22:00;;;;;;;8.40;7.50;;;;;;;8.77;93.44;99636.73;108349;1253;61575;-59
2023/11/17 11:24:36;;;;;;;12.00;7.80;;;;;;;8.82;92.74;99640.25;108489;1252;60980;-58
2023/11/17 11:27:07;;;;;;;12.30;8.70;;;;;;;8.86;92.25;99640.09;107925;1252;73622;-59
2023/11/17 11:29:38;;;;;;;11.20;7.80;;;;;;;8.88;92.33;99640.40;108309;1252;69204;-59
2023/11/17 11:32:08;;;;;;;12.30;7.60;;;;;;;8.90;92.52;99640.46;108193;1254;72481;-58
2023/11/17 11:34:36;;;;;;;15.40;7.90;;;;;;;8.93;92.25;99640.34;108409;1253;61288;-59
2023/11/17 11:37:04;;;;;;;12.50;8.30;;;;;;;8.95;91.98;99640.66;108315;1252;59685;-58
2023/11/17 11:39:32;;;;;;;;;;;;;;;8.94;91.83;99640.68;107897;1253;74567;-59
2023/11/17 11:42:00;;;;;;;12.10;8.20;;;;;;;8.95;91.37;99639.25;108406;1252;69142;-59
2023/11/17 11:44:28;;;;;;;11.20;7.00;;;;;;;8.95;91.33;99632.06;108307;1252;74949;-59
2023/11/17 11:46:57;;;;;;;12.80;7.50;;;;;;;8.96;90.87;99633.94;108285;1252;60907;-59
2023/11/17 11:49:25;;;;;;;8.70;6.80;;;;;;;8.93;90.97;99631.08;108115;1252;59699;-59
2023/11/17 11:52:09;;;;;;;;;;;;;;;8.88;91.40;99619.94;108245;1252;73710;-59
2023/11/17 11:54:37;;;;;;;9.30;7.50;;;;;;;8.93;91.47;99625.67;108215;1252;69519;-59